createdAt,value
2019-01-20T00:00:59.591Z,0
2019-01-20T00:01:59.578Z,0
2019-01-20T00:02:59.561Z,0
2019-01-20T00:03:59.534Z,0
2019-01-20T00:04:59.521Z,0
2019-01-20T00:05:59.499Z,0
2019-01-20T00:06:59.481Z,0
2019-01-20T00:07:59.464Z,0
2019-01-20T00:08:59.442Z,0
2019-01-20T00:09:59.423Z,0
2019-01-20T00:10:59.402Z,0
2019-01-20T00:11:59.387Z,0
2019-01-20T00:12:59.368Z,0
2019-01-20T00:13:59.343Z,0
2019-01-20T00:14:59.328Z,0
2019-01-20T00:15:59.066Z,0
2019-01-20T00:16:59.290Z,0
2019-01-20T00:17:59.355Z,0
2019-01-20T00:18:59.255Z,0
2019-01-20T00:19:59.238Z,0
2019-01-20T00:20:59.218Z,0
2019-01-20T00:22:00.867Z,0
2019-01-20T00:22:59.178Z,0
2019-01-20T00:23:59.156Z,0
2019-01-20T00:24:59.187Z,0
2019-01-20T00:25:59.114Z,0
2019-01-20T00:26:59.354Z,0
2019-01-20T00:27:59.083Z,0
2019-01-20T00:28:59.059Z,0
2019-01-20T00:29:59.037Z,0
2019-01-20T00:30:59.022Z,0
2019-01-20T00:31:58.770Z,0
2019-01-20T00:32:58.986Z,0
2019-01-20T00:33:58.968Z,0
2019-01-20T00:34:58.952Z,0
2019-01-20T00:35:58.932Z,0
2019-01-20T00:36:58.906Z,0
2019-01-20T00:37:58.909Z,0
2019-01-20T00:38:58.870Z,0
2019-01-20T00:39:58.850Z,0
2019-01-20T00:40:58.830Z,0
2019-01-20T00:41:58.810Z,0
2019-01-20T00:42:58.800Z,0
2019-01-20T00:43:58.774Z,0
2019-01-20T00:45:05.116Z,0
2019-01-20T00:45:58.740Z,0
2019-01-20T00:46:58.722Z,0
2019-01-20T00:47:58.699Z,0
2019-01-20T00:48:58.704Z,0
2019-01-20T00:49:58.658Z,0
2019-01-20T00:50:58.647Z,0
2019-01-20T00:51:58.620Z,0
2019-01-20T00:52:58.604Z,0
2019-01-20T00:53:58.592Z,0
2019-01-20T00:54:58.568Z,0
2019-01-20T00:55:58.552Z,0
2019-01-20T00:56:58.526Z,0
2019-01-20T00:57:58.508Z,0
2019-01-20T00:58:58.485Z,0
2019-01-20T00:59:58.474Z,0
2019-01-20T01:00:58.798Z,0
2019-01-20T01:01:58.430Z,0
2019-01-20T01:02:58.430Z,0
2019-01-20T01:03:58.397Z,0
2019-01-20T01:04:58.370Z,0
2019-01-20T01:05:58.353Z,0
2019-01-20T01:06:58.338Z,0
2019-01-20T01:07:58.323Z,0
2019-01-20T01:08:58.294Z,0
2019-01-20T01:09:58.279Z,0
2019-01-20T01:10:58.256Z,0
2019-01-20T01:11:58.244Z,0
2019-01-20T01:12:57.975Z,0
2019-01-20T01:13:58.209Z,0
2019-01-20T01:14:58.217Z,0
2019-01-20T01:15:58.158Z,0
2019-01-20T01:16:58.142Z,0
2019-01-20T01:17:58.125Z,0
2019-01-20T01:18:58.105Z,0
2019-01-20T01:19:57.846Z,0
2019-01-20T01:20:58.065Z,0
2019-01-20T01:21:58.049Z,0
2019-01-20T01:22:58.076Z,0
2019-01-20T01:23:58.009Z,0
2019-01-20T01:24:58.021Z,0
2019-01-20T01:25:57.982Z,0
2019-01-20T01:26:57.951Z,0
2019-01-20T01:27:57.939Z,0
2019-01-20T01:28:57.918Z,0
2019-01-20T01:29:57.908Z,0
2019-01-20T01:30:57.872Z,0
2019-01-20T01:31:57.852Z,0
2019-01-20T01:32:57.842Z,0
2019-01-20T01:33:57.810Z,0
2019-01-20T01:34:57.793Z,0
2019-01-20T01:35:57.778Z,0
2019-01-20T01:36:57.751Z,0
2019-01-20T01:37:57.736Z,0
2019-01-20T01:38:57.718Z,0
2019-01-20T01:39:57.699Z,0
2019-01-20T01:40:57.735Z,0
2019-01-20T01:41:57.660Z,0
2019-01-20T01:42:57.643Z,0
2019-01-20T01:43:57.618Z,0
2019-01-20T01:44:57.605Z,0
2019-01-20T01:45:57.600Z,0
2019-01-20T01:46:57.564Z,0
2019-01-20T01:47:57.551Z,0
2019-01-20T01:48:57.522Z,0
2019-01-20T01:49:57.572Z,0
2019-01-20T01:50:57.489Z,0
2019-01-20T01:51:57.467Z,0
2019-01-20T01:52:57.447Z,0
2019-01-20T01:53:57.427Z,0
2019-01-20T01:54:57.411Z,0
2019-01-20T01:55:57.151Z,0
2019-01-20T01:56:57.367Z,0
2019-01-20T01:57:57.361Z,0
2019-01-20T01:58:57.338Z,0
2019-01-20T01:59:57.313Z,0
2019-01-20T02:00:57.291Z,0
2019-01-20T02:01:57.279Z,0
2019-01-20T02:02:57.255Z,0
2019-01-20T02:03:57.233Z,0
2019-01-20T02:04:57.268Z,0
2019-01-20T02:05:57.213Z,0
2019-01-20T02:06:57.173Z,0
2019-01-20T02:07:57.160Z,0
2019-01-20T02:08:57.140Z,0
2019-01-20T02:09:57.365Z,0
2019-01-20T02:10:57.100Z,0
2019-01-20T02:11:57.086Z,0
2019-01-20T02:12:57.064Z,0
2019-01-20T02:13:57.048Z,0
2019-01-20T02:14:57.030Z,0
2019-01-20T02:15:57.003Z,0
2019-01-20T02:16:56.740Z,0
2019-01-20T02:17:56.960Z,0
2019-01-20T02:18:56.948Z,0
2019-01-20T02:19:56.928Z,0
2019-01-20T02:20:56.949Z,0
2019-01-20T02:21:56.885Z,0
2019-01-20T02:22:56.871Z,0
2019-01-20T02:23:56.848Z,0
2019-01-20T02:24:56.835Z,0
2019-01-20T02:25:56.806Z,0
2019-01-20T02:26:56.788Z,0
2019-01-20T02:27:56.776Z,0
2019-01-20T02:28:56.751Z,0
2019-01-20T02:29:56.731Z,0
2019-01-20T02:30:57.017Z,0
2019-01-20T02:31:56.702Z,0
2019-01-20T02:32:56.714Z,0
2019-01-20T02:33:56.662Z,0
2019-01-20T02:34:56.638Z,0
2019-01-20T02:35:56.630Z,0
2019-01-20T02:36:56.606Z,0
2019-01-20T02:37:56.622Z,0
2019-01-20T02:38:56.574Z,0
2019-01-20T02:39:56.546Z,0
2019-01-20T02:40:56.521Z,0
2019-01-20T02:42:04.428Z,0
2019-01-20T02:42:56.486Z,0
2019-01-20T02:43:56.218Z,0
2019-01-20T02:44:56.454Z,0
2019-01-20T02:45:56.434Z,0
2019-01-20T02:46:56.402Z,0
2019-01-20T02:47:56.385Z,0
2019-01-20T02:48:56.367Z,0
2019-01-20T02:49:56.370Z,0
2019-01-20T02:50:56.321Z,0
2019-01-20T02:51:56.313Z,0
2019-01-20T02:52:56.288Z,0
2019-01-20T02:53:56.029Z,0
2019-01-20T02:54:56.247Z,0
2019-01-20T02:55:56.239Z,0
2019-01-20T02:56:55.966Z,0
2019-01-20T02:57:56.189Z,0
2019-01-20T02:58:56.169Z,0
2019-01-20T02:59:56.171Z,0
2019-01-20T03:00:56.142Z,0
2019-01-20T03:01:56.119Z,0
2019-01-20T03:02:56.093Z,0
2019-01-20T03:03:56.071Z,0
2019-01-20T03:04:56.060Z,0
2019-01-20T03:05:56.027Z,0
2019-01-20T03:06:56.013Z,0
2019-01-20T03:07:55.992Z,0
2019-01-20T03:08:55.980Z,0
2019-01-20T03:09:55.956Z,0
2019-01-20T03:10:55.932Z,0
2019-01-20T03:12:03.237Z,0
2019-01-20T03:12:55.900Z,0
2019-01-20T03:13:55.892Z,0
2019-01-20T03:14:55.875Z,0
2019-01-20T03:15:55.849Z,0
2019-01-20T03:16:55.817Z,0
2019-01-20T03:17:55.798Z,0
2019-01-20T03:18:55.772Z,0
2019-01-20T03:19:55.758Z,0
2019-01-20T03:20:55.793Z,0
2019-01-20T03:21:55.720Z,0
2019-01-20T03:22:55.708Z,0
2019-01-20T03:23:55.684Z,0
2019-01-20T03:24:55.658Z,0
2019-01-20T03:25:55.653Z,0
2019-01-20T03:26:55.623Z,0
2019-01-20T03:27:55.614Z,0
2019-01-20T03:28:55.581Z,0
2019-01-20T03:29:55.564Z,0
2019-01-20T03:30:55.567Z,0
2019-01-20T03:31:55.555Z,0
2019-01-20T03:32:55.603Z,0
2019-01-20T03:33:55.487Z,0
2019-01-20T03:34:55.470Z,0
2019-01-20T03:35:55.442Z,0
2019-01-20T03:36:55.187Z,0
2019-01-20T03:37:55.418Z,0
2019-01-20T03:38:55.388Z,0
2019-01-20T03:39:55.366Z,0
2019-01-20T03:40:55.347Z,0
2019-01-20T03:41:55.327Z,0
2019-01-20T03:42:55.308Z,0
2019-01-20T03:43:55.290Z,0
2019-01-20T03:44:55.270Z,0
2019-01-20T03:45:55.245Z,0
2019-01-20T03:46:55.570Z,0
2019-01-20T03:47:55.217Z,0
2019-01-20T03:48:55.190Z,0
2019-01-20T03:49:55.174Z,0
2019-01-20T03:50:55.162Z,0
2019-01-20T03:51:55.134Z,0
2019-01-20T03:52:55.111Z,0
2019-01-20T03:53:55.095Z,0
2019-01-20T03:54:55.070Z,0
2019-01-20T03:55:55.057Z,0
2019-01-20T03:56:55.041Z,0
2019-01-20T03:57:55.058Z,0
2019-01-20T03:58:55.003Z,0
2019-01-20T03:59:54.974Z,0
2019-01-20T04:00:54.952Z,0
2019-01-20T04:01:54.955Z,0
2019-01-20T04:02:54.926Z,0
2019-01-20T04:03:54.934Z,0
2019-01-20T04:04:54.881Z,0
2019-01-20T04:05:54.861Z,0
2019-01-20T04:06:54.603Z,0
2019-01-20T04:07:55.559Z,0
2019-01-20T04:08:54.805Z,0
2019-01-20T04:09:54.788Z,0
2019-01-20T04:10:54.760Z,0
2019-01-20T04:11:54.745Z,0
2019-01-20T04:12:54.725Z,0
2019-01-20T04:13:54.464Z,0
2019-01-20T04:14:54.686Z,0
2019-01-20T04:15:54.663Z,0
2019-01-20T04:16:54.644Z,0
2019-01-20T04:17:54.624Z,0
2019-01-20T04:18:54.597Z,0
2019-01-20T04:19:54.578Z,0
2019-01-20T04:20:54.561Z,0
2019-01-20T04:21:54.612Z,0
2019-01-20T04:22:54.531Z,0
2019-01-20T04:23:54.964Z,0
2019-01-20T04:24:54.523Z,0
2019-01-20T04:25:54.462Z,0
2019-01-20T04:26:54.442Z,0
2019-01-20T04:27:54.446Z,0
2019-01-20T04:28:54.406Z,0
2019-01-20T04:29:54.400Z,0
2019-01-20T04:30:54.375Z,0
2019-01-20T04:31:54.344Z,0
2019-01-20T04:32:54.329Z,0
2019-01-20T04:33:54.306Z,0
2019-01-20T04:34:54.309Z,0
2019-01-20T04:35:54.018Z,0
2019-01-20T04:36:54.244Z,0
2019-01-20T04:37:54.227Z,0
2019-01-20T04:38:54.203Z,0
2019-01-20T04:39:54.192Z,0
2019-01-20T04:40:54.165Z,0
2019-01-20T04:41:54.161Z,0
2019-01-20T04:42:54.135Z,0
2019-01-20T04:43:54.106Z,0
2019-01-20T04:44:54.095Z,0
2019-01-20T04:45:54.087Z,0
2019-01-20T04:46:54.048Z,0
2019-01-20T04:47:54.039Z,0
2019-01-20T04:48:54.016Z,0
2019-01-20T04:49:53.994Z,0
2019-01-20T04:50:53.966Z,0
2019-01-20T04:51:53.952Z,0
2019-01-20T04:52:53.946Z,0
2019-01-20T04:53:53.922Z,0
2019-01-20T04:54:53.894Z,0
2019-01-20T04:55:53.878Z,0
2019-01-20T04:56:53.852Z,0
2019-01-20T04:57:53.584Z,0
2019-01-20T04:58:53.573Z,0
2019-01-20T04:59:53.784Z,0
2019-01-20T05:00:53.769Z,0
2019-01-20T05:01:53.747Z,0
2019-01-20T05:02:53.731Z,0
2019-01-20T05:03:53.713Z,0
2019-01-20T05:04:54.287Z,0
2019-01-20T05:05:53.699Z,0
2019-01-20T05:06:53.648Z,0
2019-01-20T05:07:53.646Z,0
2019-01-20T05:08:53.625Z,0
2019-01-20T05:09:53.599Z,0
2019-01-20T05:10:53.572Z,0
2019-01-20T05:11:53.565Z,0
2019-01-20T05:12:53.547Z,0
2019-01-20T05:13:53.511Z,0
2019-01-20T05:14:53.496Z,0
2019-01-20T05:15:53.475Z,0
2019-01-20T05:16:53.452Z,0
2019-01-20T05:17:53.513Z,0
2019-01-20T05:18:53.418Z,0
2019-01-20T05:19:53.391Z,0
2019-01-20T05:20:53.368Z,0
2019-01-20T05:21:53.347Z,0
2019-01-20T05:22:53.351Z,0
2019-01-20T05:23:53.316Z,0
2019-01-20T05:24:53.301Z,0
2019-01-20T05:25:53.275Z,0
2019-01-20T05:26:53.248Z,0
2019-01-20T05:27:53.000Z,0
2019-01-20T05:28:53.219Z,0
2019-01-20T05:29:53.199Z,0
2019-01-20T05:30:53.168Z,0
2019-01-20T05:31:52.967Z,0
2019-01-20T05:32:53.144Z,0
2019-01-20T05:33:53.160Z,0
2019-01-20T05:34:53.147Z,0
2019-01-20T05:35:53.075Z,0
2019-01-20T05:36:53.051Z,0
2019-01-20T05:37:53.043Z,0
2019-01-20T05:38:53.019Z,0
2019-01-20T05:39:53.002Z,0
2019-01-20T05:40:52.971Z,0
2019-01-20T05:41:52.978Z,0
2019-01-20T05:42:55.969Z,0
2019-01-20T05:43:52.986Z,0
2019-01-20T05:44:52.893Z,0
2019-01-20T05:45:52.890Z,0
2019-01-20T05:46:52.879Z,0
2019-01-20T05:47:52.891Z,0
2019-01-20T05:48:52.809Z,0
2019-01-20T05:49:52.797Z,0
2019-01-20T05:50:52.538Z,0
2019-01-20T05:51:52.752Z,0
2019-01-20T05:52:52.735Z,0
2019-01-20T05:53:52.710Z,0
2019-01-20T05:54:52.698Z,0
2019-01-20T05:55:52.683Z,0
2019-01-20T05:56:52.664Z,0
2019-01-20T05:57:52.638Z,0
2019-01-20T05:58:52.617Z,0
2019-01-20T05:59:52.593Z,0
2019-01-20T06:00:52.578Z,0
2019-01-20T06:01:52.571Z,0
2019-01-20T06:02:52.545Z,0
2019-01-20T06:03:52.521Z,0
2019-01-20T06:04:52.500Z,0
2019-01-20T06:05:52.485Z,0
2019-01-20T06:06:52.464Z,0
2019-01-20T06:07:52.437Z,0
2019-01-20T06:08:52.417Z,0
2019-01-20T06:09:52.395Z,0
2019-01-20T06:10:52.378Z,0
2019-01-20T06:11:52.357Z,0
2019-01-20T06:12:58.870Z,0
2019-01-20T06:13:52.316Z,0
2019-01-20T06:14:52.297Z,0
2019-01-20T06:15:52.291Z,0
2019-01-20T06:16:52.282Z,0
2019-01-20T06:17:52.273Z,0
2019-01-20T06:18:52.244Z,0
2019-01-20T06:19:52.192Z,0
2019-01-20T06:20:52.174Z,0
2019-01-20T06:21:52.151Z,0
2019-01-20T06:22:52.148Z,0
2019-01-20T06:23:52.112Z,0
2019-01-20T06:24:52.097Z,0
2019-01-20T06:25:52.085Z,0
2019-01-20T06:26:52.070Z,0
2019-01-20T06:27:52.037Z,0
2019-01-20T06:28:52.025Z,0
2019-01-20T06:29:51.752Z,0
2019-01-20T06:30:51.978Z,0
2019-01-20T06:31:51.963Z,0
2019-01-20T06:32:51.935Z,0
2019-01-20T06:33:51.682Z,0
2019-01-20T06:34:51.661Z,0
2019-01-20T06:35:51.882Z,0
2019-01-20T06:36:51.860Z,0
2019-01-20T06:37:51.841Z,0
2019-01-20T06:38:51.816Z,0
2019-01-20T06:39:51.798Z,0
2019-01-20T06:40:51.777Z,0
2019-01-20T06:41:51.756Z,0
2019-01-20T06:42:51.743Z,0
2019-01-20T06:43:51.720Z,0
2019-01-20T06:44:51.695Z,0
2019-01-20T06:45:51.681Z,0
2019-01-20T06:46:51.664Z,0
2019-01-20T06:47:51.637Z,0
2019-01-20T06:48:51.613Z,0
2019-01-20T06:49:51.595Z,0
2019-01-20T06:50:51.575Z,0
2019-01-20T06:51:51.566Z,0
2019-01-20T06:52:51.539Z,0
2019-01-20T06:53:51.514Z,0
2019-01-20T06:54:51.493Z,5
2019-01-20T06:55:51.491Z,5
2019-01-20T06:56:51.458Z,5
2019-01-20T06:57:51.442Z,5
2019-01-20T06:58:51.416Z,5
2019-01-20T06:59:51.395Z,5
2019-01-20T07:00:51.378Z,5
2019-01-20T07:01:51.372Z,10
2019-01-20T07:02:51.338Z,10
2019-01-20T07:03:51.313Z,10
2019-01-20T07:04:51.294Z,10
2019-01-20T07:05:51.275Z,10
2019-01-20T07:06:51.255Z,10
2019-01-20T07:07:51.232Z,15
2019-01-20T07:08:51.216Z,15
2019-01-20T07:09:51.194Z,15
2019-01-20T07:10:51.188Z,15
2019-01-20T07:11:51.161Z,15
2019-01-20T07:12:51.145Z,20
2019-01-20T07:13:51.114Z,20
2019-01-20T07:14:51.095Z,20
2019-01-20T07:15:51.078Z,20
2019-01-20T07:16:51.063Z,25
2019-01-20T07:17:51.035Z,25
2019-01-20T07:18:51.994Z,25
2019-01-20T07:19:50.999Z,25
2019-01-20T07:20:50.737Z,30
2019-01-20T07:21:50.957Z,30
2019-01-20T07:22:50.933Z,30
2019-01-20T07:23:50.913Z,30
2019-01-20T07:24:50.908Z,35
2019-01-20T07:25:50.881Z,35
2019-01-20T07:26:50.865Z,35
2019-01-20T07:27:50.839Z,40
2019-01-20T07:28:50.812Z,40
2019-01-20T07:29:50.804Z,40
2019-01-20T07:30:50.780Z,40
2019-01-20T07:31:50.758Z,45
2019-01-20T07:32:50.738Z,45
2019-01-20T07:33:50.715Z,45
2019-01-20T07:34:50.704Z,45
2019-01-20T07:35:50.674Z,50
2019-01-20T07:36:50.656Z,50
2019-01-20T07:37:50.717Z,50
2019-01-20T07:38:50.622Z,55
2019-01-20T07:39:50.593Z,55
2019-01-20T07:40:50.578Z,55
2019-01-20T07:41:50.555Z,55
2019-01-20T07:42:50.535Z,60
2019-01-20T07:43:50.522Z,60
2019-01-20T07:44:50.831Z,60
2019-01-20T07:45:50.476Z,60
2019-01-20T07:46:50.466Z,65
2019-01-20T07:47:50.442Z,65
2019-01-20T07:48:50.422Z,65
2019-01-20T07:49:50.398Z,65
2019-01-20T07:50:50.381Z,65
2019-01-20T07:51:50.361Z,70
2019-01-20T07:52:50.342Z,70
2019-01-20T07:53:50.325Z,70
2019-01-20T07:54:50.298Z,70
2019-01-20T07:55:51.003Z,75
2019-01-20T07:56:50.277Z,75
2019-01-20T07:57:50.245Z,75
2019-01-20T07:58:50.219Z,75
2019-01-20T07:59:50.204Z,75
2019-01-20T08:00:50.181Z,80
2019-01-20T08:01:50.168Z,80
2019-01-20T08:02:50.148Z,80
2019-01-20T08:03:50.126Z,80
2019-01-20T08:04:50.108Z,80
2019-01-20T08:05:50.088Z,85
2019-01-20T08:06:50.086Z,85
2019-01-20T08:07:49.812Z,85
2019-01-20T08:08:50.026Z,85
2019-01-20T08:09:50.012Z,85
2019-01-20T08:10:49.994Z,90
2019-01-20T08:11:50.301Z,90
2019-01-20T08:12:49.963Z,90
2019-01-20T08:13:50.182Z,90
2019-01-20T08:14:49.913Z,90
2019-01-20T08:15:49.890Z,90
2019-01-20T08:16:49.884Z,90
2019-01-20T08:17:49.863Z,95
2019-01-20T08:18:49.846Z,95
2019-01-20T08:19:49.816Z,95
2019-01-20T08:20:49.791Z,95
2019-01-20T08:21:49.782Z,95
2019-01-20T08:22:49.757Z,95
2019-01-20T08:23:49.740Z,100
2019-01-20T08:24:49.715Z,100
2019-01-20T08:25:50.763Z,100
2019-01-20T08:26:50.512Z,100
2019-01-20T08:27:49.667Z,100
2019-01-20T08:28:49.655Z,100
2019-01-20T08:29:49.622Z,100
2019-01-20T08:30:49.600Z,105
2019-01-20T08:31:49.586Z,105
2019-01-20T08:32:49.566Z,105
2019-01-20T08:33:49.303Z,105
2019-01-20T08:34:49.522Z,105
2019-01-20T08:35:49.505Z,105
2019-01-20T08:36:49.488Z,105
2019-01-20T08:37:49.468Z,105
2019-01-20T08:38:49.448Z,105
2019-01-20T08:39:49.435Z,105
2019-01-20T08:40:49.414Z,110
2019-01-20T08:41:49.384Z,110
2019-01-20T08:42:49.711Z,110
2019-01-20T08:43:49.356Z,110
2019-01-20T08:44:49.328Z,110
2019-01-20T08:45:49.313Z,110
2019-01-20T08:46:49.292Z,110
2019-01-20T08:47:49.279Z,110
2019-01-20T08:48:49.257Z,110
2019-01-20T08:49:49.237Z,115
2019-01-20T08:50:49.246Z,115
2019-01-20T08:51:49.204Z,115
2019-01-20T08:52:49.181Z,115
2019-01-20T08:53:49.164Z,115
2019-01-20T08:54:49.137Z,115
2019-01-20T08:55:49.114Z,115
2019-01-20T08:56:49.107Z,115
2019-01-20T08:57:49.079Z,115
2019-01-20T08:58:49.063Z,115
2019-01-20T08:59:49.046Z,115
2019-01-20T09:00:50.170Z,115
2019-01-20T09:01:49.007Z,115
2019-01-20T09:02:49.033Z,115
2019-01-20T09:03:48.961Z,120
2019-01-20T09:04:48.701Z,120
2019-01-20T09:05:48.949Z,120
2019-01-20T09:06:48.908Z,120
2019-01-20T09:07:48.900Z,120
2019-01-20T09:08:48.868Z,120
2019-01-20T09:09:48.849Z,120
2019-01-20T09:10:48.832Z,120
2019-01-20T09:11:48.818Z,120
2019-01-20T09:12:48.793Z,120
2019-01-20T09:13:49.575Z,120
2019-01-20T09:14:48.775Z,120
2019-01-20T09:15:48.740Z,120
2019-01-20T09:16:48.721Z,125
2019-01-20T09:17:48.469Z,125
2019-01-20T09:18:48.685Z,125
2019-01-20T09:19:48.667Z,125
2019-01-20T09:20:48.645Z,125
2019-01-20T09:21:48.631Z,125
2019-01-20T09:22:48.365Z,125
2019-01-20T09:23:48.596Z,125
2019-01-20T09:24:48.574Z,125
2019-01-20T09:25:48.555Z,125
2019-01-20T09:26:48.536Z,125
2019-01-20T09:27:48.270Z,125
2019-01-20T09:28:48.495Z,125
2019-01-20T09:29:48.475Z,125
2019-01-20T09:30:48.459Z,125
2019-01-20T09:31:48.454Z,125
2019-01-20T09:32:48.422Z,125
2019-01-20T09:33:48.401Z,125
2019-01-20T09:34:48.385Z,125
2019-01-20T09:35:48.370Z,125
2019-01-20T09:36:48.349Z,125
2019-01-20T09:37:48.367Z,125
2019-01-20T09:38:48.307Z,125
2019-01-20T09:39:48.297Z,125
2019-01-20T09:40:48.276Z,125
2019-01-20T09:41:48.257Z,125
2019-01-20T09:42:48.243Z,125
2019-01-20T09:43:54.442Z,125
2019-01-20T09:44:48.202Z,125
2019-01-20T09:45:48.184Z,125
2019-01-20T09:46:48.179Z,125
2019-01-20T09:47:48.150Z,125
2019-01-20T09:48:48.135Z,125
2019-01-20T09:49:48.111Z,125
2019-01-20T09:50:48.148Z,130
2019-01-20T09:51:48.071Z,130
2019-01-20T09:52:48.060Z,130
2019-01-20T09:53:48.040Z,130
2019-01-20T09:54:48.020Z,130
2019-01-20T09:55:47.998Z,130
2019-01-20T09:56:47.984Z,130
2019-01-20T09:57:47.968Z,130
2019-01-20T09:58:47.955Z,130
2019-01-20T09:59:47.933Z,130
2019-01-20T10:00:47.914Z,130
2019-01-20T10:01:47.894Z,130
2019-01-20T10:02:47.876Z,130
2019-01-20T10:03:47.861Z,130
2019-01-20T10:04:47.840Z,130
2019-01-20T10:05:47.827Z,130
2019-01-20T10:06:47.815Z,130
2019-01-20T10:07:47.788Z,130
2019-01-20T10:08:47.774Z,130
2019-01-20T10:09:47.759Z,130
2019-01-20T10:10:47.741Z,130
2019-01-20T10:11:47.715Z,130
2019-01-20T10:12:47.712Z,130
2019-01-20T10:13:54.599Z,130
2019-01-20T10:14:47.661Z,130
2019-01-20T10:15:47.410Z,130
2019-01-20T10:16:47.630Z,130
2019-01-20T10:17:47.613Z,130
2019-01-20T10:18:47.899Z,130
2019-01-20T10:19:47.573Z,130
2019-01-20T10:20:47.560Z,130
2019-01-20T10:21:47.544Z,130
2019-01-20T10:22:47.520Z,130
2019-01-20T10:23:47.507Z,130
2019-01-20T10:24:47.825Z,130
2019-01-20T10:25:47.471Z,130
2019-01-20T10:26:49.614Z,130
2019-01-20T10:27:47.431Z,130
2019-01-20T10:28:47.435Z,130
2019-01-20T10:29:47.403Z,130
2019-01-20T10:30:47.394Z,130
2019-01-20T10:31:47.365Z,130
2019-01-20T10:32:50.429Z,130
2019-01-20T10:33:47.331Z,130
2019-01-20T10:34:47.313Z,130
2019-01-20T10:35:47.302Z,130
2019-01-20T10:36:47.275Z,130
2019-01-20T10:37:47.265Z,130
2019-01-20T10:38:47.244Z,130
2019-01-20T10:39:47.225Z,130
2019-01-20T10:40:47.208Z,130
2019-01-20T10:41:47.194Z,130
2019-01-20T10:42:47.172Z,130
2019-01-20T10:43:47.155Z,130
2019-01-20T10:44:47.139Z,130
2019-01-20T10:45:47.120Z,130
2019-01-20T10:46:47.106Z,130
2019-01-20T10:47:47.083Z,130
2019-01-20T10:48:47.067Z,130
2019-01-20T10:49:47.050Z,130
2019-01-20T10:50:47.040Z,130
2019-01-20T10:51:47.017Z,130
2019-01-20T10:52:47.001Z,130
2019-01-20T10:53:47.009Z,130
2019-01-20T10:54:46.963Z,130
2019-01-20T10:55:46.950Z,130
2019-01-20T10:56:46.932Z,130
2019-01-20T10:57:46.922Z,130
2019-01-20T10:58:46.905Z,130
2019-01-20T10:59:46.878Z,125
2019-01-20T11:00:46.865Z,125
2019-01-20T11:01:46.848Z,125
2019-01-20T11:02:46.831Z,125
2019-01-20T11:03:46.815Z,125
2019-01-20T11:04:46.802Z,125
2019-01-20T11:05:46.782Z,125
2019-01-20T11:06:46.571Z,125
2019-01-20T11:07:46.744Z,125
2019-01-20T11:08:46.735Z,125
2019-01-20T11:09:46.709Z,125
2019-01-20T11:10:47.280Z,125
2019-01-20T11:11:46.678Z,125
2019-01-20T11:12:47.910Z,125
2019-01-20T11:13:46.650Z,125
2019-01-20T11:14:46.637Z,125
2019-01-20T11:15:46.621Z,125
2019-01-20T11:16:46.592Z,125
2019-01-20T11:17:46.638Z,125
2019-01-20T11:18:46.564Z,125
2019-01-20T11:19:46.547Z,125
2019-01-20T11:20:46.542Z,125
2019-01-20T11:21:46.515Z,125
2019-01-20T11:22:46.300Z,125
2019-01-20T11:23:46.479Z,125
2019-01-20T11:24:46.460Z,125
2019-01-20T11:25:46.449Z,125
2019-01-20T11:26:46.427Z,125
2019-01-20T11:27:46.411Z,125
2019-01-20T11:28:46.401Z,125
2019-01-20T11:29:46.425Z,125
2019-01-20T11:30:46.367Z,125
2019-01-20T11:31:46.341Z,125
2019-01-20T11:32:51.821Z,125
2019-01-20T11:33:46.315Z,125
2019-01-20T11:34:46.293Z,125
2019-01-20T11:35:46.277Z,125
2019-01-20T11:36:46.258Z,125
2019-01-20T11:37:46.243Z,125
2019-01-20T11:38:46.232Z,125
2019-01-20T11:39:46.214Z,125
2019-01-20T11:40:46.205Z,125
2019-01-20T11:41:46.180Z,125
2019-01-20T11:42:46.163Z,125
2019-01-20T11:43:46.144Z,125
2019-01-20T11:44:46.139Z,125
2019-01-20T11:45:46.111Z,125
2019-01-20T11:46:46.095Z,125
2019-01-20T11:47:51.384Z,125
2019-01-20T11:48:46.107Z,125
2019-01-20T11:49:46.047Z,125
2019-01-20T11:50:46.032Z,125
2019-01-20T11:51:46.016Z,125
2019-01-20T11:52:46.007Z,125
2019-01-20T11:53:46.033Z,125
2019-01-20T11:54:45.964Z,120
2019-01-20T11:55:45.951Z,120
2019-01-20T11:56:45.932Z,120
2019-01-20T11:57:45.912Z,120
2019-01-20T11:58:45.900Z,120
2019-01-20T11:59:45.942Z,120
2019-01-20T12:00:45.870Z,120
2019-01-20T12:01:45.851Z,120
2019-01-20T12:02:45.833Z,120
2019-01-20T12:03:45.824Z,120
2019-01-20T12:04:45.809Z,120
2019-01-20T12:05:45.782Z,120
2019-01-20T12:06:45.775Z,120
2019-01-20T12:07:45.747Z,120
2019-01-20T12:08:45.735Z,120
2019-01-20T12:09:45.718Z,120
2019-01-20T12:10:45.703Z,120
2019-01-20T12:11:45.688Z,120
2019-01-20T12:12:45.734Z,120
2019-01-20T12:13:45.656Z,120
2019-01-20T12:14:45.646Z,120
2019-01-20T12:15:45.638Z,120
2019-01-20T12:16:45.602Z,120
2019-01-20T12:17:45.595Z,120
2019-01-20T12:18:45.578Z,120
2019-01-20T12:19:45.560Z,120
2019-01-20T12:20:45.547Z,120
2019-01-20T12:21:45.527Z,120
2019-01-20T12:22:45.536Z,120
2019-01-20T12:23:45.500Z,120
2019-01-20T12:24:45.479Z,120
2019-01-20T12:25:45.464Z,120
2019-01-20T12:26:45.445Z,120
2019-01-20T12:27:45.436Z,115
2019-01-20T12:28:45.417Z,115
2019-01-20T12:29:51.744Z,115
2019-01-20T12:30:45.380Z,115
2019-01-20T12:31:45.373Z,115
2019-01-20T12:32:45.353Z,115
2019-01-20T12:33:45.348Z,115
2019-01-20T12:34:45.322Z,115
2019-01-20T12:35:45.310Z,115
2019-01-20T12:36:45.290Z,115
2019-01-20T12:37:45.275Z,115
2019-01-20T12:38:45.253Z,115
2019-01-20T12:39:45.239Z,115
2019-01-20T12:40:45.230Z,115
2019-01-20T12:41:45.222Z,115
2019-01-20T12:42:45.194Z,115
2019-01-20T12:43:45.174Z,115
2019-01-20T12:44:45.168Z,115
2019-01-20T12:45:45.143Z,115
2019-01-20T12:46:45.138Z,115
2019-01-20T12:47:45.120Z,115
2019-01-20T12:48:45.093Z,115
2019-01-20T12:49:45.078Z,115
2019-01-20T12:50:45.074Z,115
2019-01-20T12:51:44.842Z,115
2019-01-20T12:52:45.076Z,115
2019-01-20T12:53:45.023Z,115
2019-01-20T12:54:45.013Z,115
2019-01-20T12:55:44.991Z,110
2019-01-20T12:56:44.971Z,110
2019-01-20T12:57:44.952Z,110
2019-01-20T12:58:44.936Z,110
2019-01-20T12:59:44.919Z,110
2019-01-20T13:00:44.907Z,110
2019-01-20T13:01:44.896Z,110
2019-01-20T13:02:44.873Z,110
2019-01-20T13:03:44.868Z,110
2019-01-20T13:04:44.843Z,110
2019-01-20T13:05:44.829Z,110
2019-01-20T13:06:44.809Z,110
2019-01-20T13:07:44.793Z,110
2019-01-20T13:08:44.781Z,110
2019-01-20T13:09:44.763Z,110
2019-01-20T13:10:44.756Z,110
2019-01-20T13:11:44.488Z,110
2019-01-20T13:12:44.712Z,110
2019-01-20T13:13:44.703Z,110
2019-01-20T13:14:48.691Z,105
2019-01-20T13:15:44.691Z,105
2019-01-20T13:16:44.652Z,105
2019-01-20T13:17:44.641Z,105
2019-01-20T13:18:44.629Z,105
2019-01-20T13:19:44.605Z,105
2019-01-20T13:20:44.588Z,105
2019-01-20T13:21:44.567Z,105
2019-01-20T13:22:44.557Z,105
2019-01-20T13:23:44.538Z,105
2019-01-20T13:24:44.526Z,105
2019-01-20T13:25:44.509Z,105
2019-01-20T13:26:44.490Z,105
2019-01-20T13:27:44.493Z,105
2019-01-20T13:28:44.463Z,105
2019-01-20T13:29:44.484Z,100
2019-01-20T13:30:44.429Z,100
2019-01-20T13:31:44.255Z,100
2019-01-20T13:32:44.395Z,100
2019-01-20T13:33:44.384Z,100
2019-01-20T13:34:44.120Z,100
2019-01-20T13:35:44.348Z,100
2019-01-20T13:36:44.406Z,100
2019-01-20T13:37:44.319Z,100
2019-01-20T13:38:44.298Z,100
2019-01-20T13:39:44.285Z,100
2019-01-20T13:40:44.273Z,100
2019-01-20T13:41:44.249Z,100
2019-01-20T13:42:44.231Z,100
2019-01-20T13:43:44.220Z,100
2019-01-20T13:44:50.883Z,95
2019-01-20T13:45:44.194Z,95
2019-01-20T13:46:44.171Z,95
2019-01-20T13:47:51.084Z,95
2019-01-20T13:48:44.136Z,95
2019-01-20T13:49:44.118Z,95
2019-01-20T13:50:44.107Z,95
2019-01-20T13:51:44.086Z,95
2019-01-20T13:52:44.071Z,95
2019-01-20T13:53:45.437Z,90
2019-01-20T13:54:44.041Z,90
2019-01-20T13:55:44.026Z,90
2019-01-20T13:56:44.005Z,90
2019-01-20T13:57:44.067Z,90
2019-01-20T13:58:45.665Z,90
2019-01-20T13:59:43.959Z,90
2019-01-20T14:00:43.946Z,90
2019-01-20T14:01:43.926Z,90
2019-01-20T14:02:43.907Z,90
2019-01-20T14:03:43.895Z,90
2019-01-20T14:04:43.880Z,90
2019-01-20T14:05:43.619Z,85
2019-01-20T14:06:43.861Z,85
2019-01-20T14:07:43.841Z,85
2019-01-20T14:08:51.288Z,85
2019-01-20T14:09:43.796Z,85
2019-01-20T14:10:43.785Z,85
2019-01-20T14:11:43.759Z,85
2019-01-20T14:12:43.750Z,80
2019-01-20T14:13:43.734Z,80
2019-01-20T14:14:43.712Z,80
2019-01-20T14:15:43.705Z,80
2019-01-20T14:16:43.681Z,80
2019-01-20T14:17:43.669Z,80
2019-01-20T14:18:50.031Z,80
2019-01-20T14:19:43.629Z,80